首页
METAR-TAF:

METAR-TAF

机场 :

卡拉马祖 / 巴特爾克里克, 密歇根州, 美国

纬度: 42-13-45N, 经度: 085-32-47W, 海拔: 266米

当前天气观测

该预报发布于41分钟前的16:53 UTC
风速4节,风向南转西南
温度 6°C
湿度 75%
气压 1022 hPa
能見度: 8.0公里
散云层高于1300英尺
阴天层高于3200英尺

METAR: KAZO 201653Z 20004KT 5SM HZ SCT013 OVC032 06/02 A3019 RMK AO2 SLP234 T00560022

时间: 12:34 (17:34 UTC)

预报

该预报发布于5小时和54分钟前的11:40 UTC
预报有效从20日的 12点(UTC)到 21日的 12点(UTC)
风速3节,风向西转西南
能見度: 8.0公里
阴天层高于1800英尺
轻雾
从 20日的 1400点(UTC)
风速5节,风向西转西南
能見度: 10公里
阴天层高于1800英尺
从 21日的 0000点(UTC)
风速5节,风向南转南东
能見度: 10公里
阴天层高于15000英尺

TAF: KAZO 201140Z 2012/2112 25003KT 5SM BR OVC018 FM201400 24005KT P6SM OVC018 FM210000 16005KT P6SM OVC150

超过4000个机场的气象观测和天气预报(METAR&TAF报告)。

可查询的气象台以黄色和红色小点在地图上表示。

将鼠标移到小点上方,可查看气象台名称。

然后点击查看天气观测和预报。

如需切换地图:点击带黑十字的绿色按钮放大地图;点击带横线的绿色按钮缩小地图;或者点击绿色箭头查看邻近地区的地图。


METAR-TAF: